createdAt,value
2018-05-02T00:01:37.393Z,8.90
2018-05-02T00:04:04.958Z,8.30
2018-05-02T00:06:32.536Z,7.90
2018-05-02T00:09:00.265Z,7.70
2018-05-02T00:11:27.903Z,7.30
2018-05-02T00:13:55.481Z,7.40
2018-05-02T00:16:23.125Z,8.10
2018-05-02T00:18:51.393Z,8.20
2018-05-02T00:21:18.966Z,8.20
2018-05-02T00:23:46.513Z,7.80
2018-05-02T00:26:14.850Z,8.80
2018-05-02T00:28:42.426Z,8.80
2018-05-02T00:31:09.993Z,9.40
2018-05-02T00:33:37.578Z,9.80
2018-05-02T00:36:05.176Z,10.10
2018-05-02T00:38:33.522Z,10.00
2018-05-02T00:41:01.862Z,10.00
2018-05-02T00:43:29.460Z,9.50
2018-05-02T00:45:57.061Z,8.70
2018-05-02T00:48:24.626Z,7.30
2018-05-02T00:50:52.210Z,6.70
2018-05-02T00:53:19.758Z,6.80
2018-05-02T00:55:47.310Z,7.30
2018-05-02T00:58:15.641Z,7.80
2018-05-02T01:00:43.187Z,7.80
2018-05-02T01:03:10.761Z,7.70
2018-05-02T01:05:39.073Z,7.50
2018-05-02T01:08:06.657Z,7.50
2018-05-02T01:10:34.259Z,7.60
2018-05-02T01:13:01.871Z,7.70
2018-05-02T01:15:29.574Z,8.10
2018-05-02T01:17:57.152Z,8.20
2018-05-02T01:20:24.805Z,7.80
2018-05-02T01:22:52.385Z,7.50
2018-05-02T01:25:19.937Z,7.20
2018-05-02T01:27:47.491Z,6.90
2018-05-02T01:30:15.833Z,6.30
2018-05-02T01:32:43.388Z,6.30
2018-05-02T01:35:10.961Z,6.20
2018-05-02T01:37:38.513Z,6.00
2018-05-02T01:40:06.099Z,6.20
2018-05-02T01:42:33.673Z,6.90
2018-05-02T01:45:01.290Z,7.70
2018-05-02T01:47:28.916Z,8.20
2018-05-02T01:49:56.502Z,8.30
2018-05-02T01:52:24.055Z,8.40
2018-05-02T01:54:51.639Z,8.20
2018-05-02T01:57:19.197Z,7.80
2018-05-02T01:59:46.779Z,7.30
2018-05-02T02:02:14.338Z,6.70
2018-05-02T02:04:41.909Z,6.60
2018-05-02T02:07:10.226Z,7.70
2018-05-02T02:09:37.821Z,7.70
2018-05-02T02:12:05.422Z,8.50
2018-05-02T02:14:33.774Z,9.80
2018-05-02T02:17:01.423Z,9.80
2018-05-02T02:19:29.032Z,10.20
2018-05-02T02:21:57.421Z,10.80
2018-05-02T02:24:25.040Z,10.70
2018-05-02T02:26:53.372Z,9.70
2018-05-02T02:29:20.938Z,9.70
2018-05-02T02:31:48.509Z,9.00
2018-05-02T02:34:16.078Z,8.10
2018-05-02T02:36:43.649Z,7.80
2018-05-02T02:39:11.206Z,7.60
2018-05-02T02:41:38.822Z,7.00
2018-05-02T02:44:06.389Z,6.60
2018-05-02T02:46:34.013Z,6.50
2018-05-02T02:49:02.394Z,7.10
2018-05-02T02:51:30.818Z,7.60
2018-05-02T02:53:58.521Z,7.60
2018-05-02T02:56:26.087Z,7.70
2018-05-02T02:58:53.658Z,7.60
2018-05-02T03:01:21.210Z,8.10
2018-05-02T03:03:48.778Z,8.30
2018-05-02T03:06:16.331Z,8.60
2018-05-02T03:08:44.669Z,9.50
2018-05-02T03:11:12.228Z,9.50
2018-05-02T03:13:39.808Z,10.00
2018-05-02T03:16:07.394Z,10.30
2018-05-02T03:18:35.010Z,10.60
2018-05-02T03:21:02.601Z,10.80
2018-05-02T03:23:30.216Z,10.90
2018-05-02T03:25:57.866Z,11.00
2018-05-02T03:28:25.462Z,10.70
2018-05-02T03:30:53.070Z,10.70
2018-05-02T03:33:20.642Z,10.80
2018-05-02T03:35:48.961Z,10.80
2018-05-02T03:38:16.513Z,10.70
2018-05-02T03:40:44.845Z,10.00
2018-05-02T03:43:12.401Z,10.00
2018-05-02T03:45:39.970Z,9.90
2018-05-02T03:48:07.598Z,10.10
2018-05-02T03:50:35.197Z,10.30
2018-05-02T03:53:02.854Z,10.10
2018-05-02T03:55:30.458Z,9.90
2018-05-02T03:57:58.058Z,10.00
2018-05-02T04:00:37.653Z,10.40
2018-05-02T04:03:17.933Z,10.20
2018-05-02T04:05:58.640Z,8.90
2018-05-02T04:08:29.144Z,8.20
2018-05-02T04:10:56.782Z,8.20
2018-05-02T04:13:24.330Z,8.20
2018-05-02T04:15:51.931Z,8.00
2018-05-02T04:18:19.477Z,7.80
2018-05-02T04:20:47.179Z,7.90
2018-05-02T04:23:14.753Z,8.30
2018-05-02T04:25:42.322Z,8.80
2018-05-02T04:28:09.894Z,8.90
2018-05-02T04:30:37.458Z,9.10
2018-05-02T04:33:05.046Z,9.00
2018-05-02T04:35:32.739Z,8.80
2018-05-02T04:38:00.357Z,8.80
2018-05-02T04:40:27.970Z,9.00
2018-05-02T04:42:56.334Z,9.30
2018-05-02T04:45:23.881Z,9.30
2018-05-02T04:47:51.450Z,9.40
2018-05-02T04:50:19.009Z,9.60
2018-05-02T04:52:47.425Z,9.50
2018-05-02T04:55:14.939Z,9.40
2018-05-02T04:57:42.510Z,9.60
2018-05-02T05:00:10.074Z,9.90
2018-05-02T05:02:37.686Z,10.30
2018-05-02T05:05:06.015Z,11.10
2018-05-02T05:07:33.604Z,11.10
2018-05-02T05:10:01.218Z,11.30
2018-05-02T05:12:29.607Z,11.30
2018-05-02T05:14:57.978Z,11.30
2018-05-02T05:17:26.329Z,11.30
2018-05-02T05:19:53.912Z,11.30
2018-05-02T05:22:21.490Z,11.40
2018-05-02T05:24:49.134Z,11.40
2018-05-02T05:27:16.699Z,11.40
2018-05-02T05:29:44.303Z,11.40
2018-05-02T05:32:11.861Z,11.30
2018-05-02T05:34:39.435Z,11.20
2018-05-02T05:37:07.014Z,11.40
2018-05-02T05:39:34.623Z,11.50
2018-05-02T05:42:02.248Z,11.50
2018-05-02T05:44:29.870Z,11.60
2018-05-02T05:46:57.441Z,11.30
2018-05-02T05:49:25.050Z,11.10
2018-05-02T05:51:53.373Z,11.00
2018-05-02T05:54:21.016Z,11.00
2018-05-02T05:56:48.607Z,11.10
2018-05-02T05:59:16.181Z,11.30
2018-05-02T06:01:43.753Z,11.40
2018-05-02T06:04:11.965Z,11.10
2018-05-02T06:06:39.608Z,10.90
2018-05-02T06:09:07.137Z,10.70
2018-05-02T06:11:34.744Z,10.60
2018-05-02T06:14:02.410Z,10.80
2018-05-02T06:16:30.812Z,11.40
2018-05-02T06:18:59.260Z,11.60
2018-05-02T06:21:27.040Z,11.60
2018-05-02T06:23:54.605Z,11.70
2018-05-02T06:26:22.196Z,11.60
2018-05-02T06:28:50.549Z,11.80
2018-05-02T06:31:18.919Z,11.80
2018-05-02T06:33:46.479Z,11.80
2018-05-02T06:36:14.067Z,11.90
2018-05-02T06:38:41.622Z,12.00
2018-05-02T06:41:09.221Z,11.70
2018-05-02T06:43:36.810Z,11.60
2018-05-02T06:46:04.391Z,11.50
2018-05-02T06:48:32.045Z,11.30
2018-05-02T06:50:59.622Z,11.30
2018-05-02T06:53:27.222Z,11.30
2018-05-02T06:55:55.557Z,11.50
2018-05-02T06:58:23.149Z,11.50
2018-05-02T07:00:50.907Z,11.20
2018-05-02T07:03:18.546Z,11.00
2018-05-02T07:05:46.875Z,10.70
2018-05-02T07:08:14.466Z,10.60
2018-05-02T07:10:42.124Z,10.80
2018-05-02T07:13:09.698Z,11.00
2018-05-02T07:15:37.262Z,11.20
2018-05-02T07:18:05.249Z,11.40
2018-05-02T07:20:32.949Z,11.60
2018-05-02T07:23:00.736Z,11.60
2018-05-02T07:25:29.292Z,11.80
2018-05-02T07:27:56.904Z,11.70
2018-05-02T07:30:24.579Z,11.60
2018-05-02T07:32:52.287Z,11.60
2018-05-02T07:35:19.833Z,11.70
2018-05-02T07:37:48.638Z,11.70
2018-05-02T07:40:16.302Z,11.70
2018-05-02T07:42:43.933Z,11.80
2018-05-02T07:45:11.509Z,11.70
2018-05-02T07:47:39.106Z,11.70
2018-05-02T07:50:06.719Z,11.80
2018-05-02T07:52:35.097Z,11.80
2018-05-02T07:55:02.738Z,11.90
2018-05-02T07:57:30.325Z,11.90
2018-05-02T07:59:57.937Z,11.90
2018-05-02T08:02:26.260Z,11.80
2018-05-02T08:04:53.846Z,11.80
2018-05-02T08:07:21.401Z,11.70
2018-05-02T08:09:48.981Z,11.60
2018-05-02T08:12:16.537Z,11.50
2018-05-02T08:14:44.126Z,11.50
2018-05-02T08:17:11.682Z,11.80
2018-05-02T08:19:39.237Z,11.90
2018-05-02T08:22:07.640Z,11.80
2018-05-02T08:24:35.190Z,11.80
2018-05-02T08:27:03.581Z,11.70
2018-05-02T08:29:31.950Z,11.90
2018-05-02T08:31:59.557Z,11.90
2018-05-02T08:34:27.137Z,12.00
2018-05-02T08:36:54.722Z,12.10
2018-05-02T08:39:22.285Z,12.10
2018-05-02T08:41:49.898Z,12.10
2018-05-02T08:44:17.454Z,12.10
2018-05-02T08:46:45.026Z,12.20
2018-05-02T08:49:12.577Z,12.00
2018-05-02T08:51:40.169Z,12.00
2018-05-02T08:54:07.743Z,12.10
2018-05-02T08:56:35.321Z,12.20
2018-05-02T08:59:02.962Z,12.10
2018-05-02T09:01:30.556Z,12.00
2018-05-02T09:03:58.178Z,12.00
2018-05-02T09:06:26.521Z,12.50
2018-05-02T09:08:54.131Z,12.50
2018-05-02T09:11:21.682Z,12.70
2018-05-02T09:13:49.264Z,12.70
2018-05-02T09:16:16.845Z,12.80
2018-05-02T09:18:44.529Z,12.90
2018-05-02T09:21:12.109Z,12.80
2018-05-02T09:23:39.690Z,13.00
2018-05-02T09:26:08.125Z,13.20
2018-05-02T09:28:35.751Z,13.30
2018-05-02T09:31:04.103Z,13.50
2018-05-02T09:33:31.723Z,13.40
2018-05-02T09:35:59.358Z,13.60
2018-05-02T09:38:26.973Z,13.60
2018-05-02T09:40:55.309Z,13.30
2018-05-02T09:43:22.894Z,13.30
2018-05-02T09:45:50.506Z,13.50
2018-05-02T09:48:18.895Z,13.60
2018-05-02T09:50:46.545Z,13.60
2018-05-02T09:53:14.161Z,13.60
2018-05-02T09:55:41.762Z,13.60
2018-05-02T09:58:09.335Z,13.40
2018-05-02T10:00:36.942Z,13.60
2018-05-02T10:03:04.569Z,13.90
2018-05-02T10:05:32.191Z,14.10
2018-05-02T10:08:00.603Z,14.20
2018-05-02T10:10:28.216Z,14.10
2018-05-02T10:12:55.853Z,14.10
2018-05-02T10:15:24.196Z,14.40
2018-05-02T10:17:51.754Z,14.40
2018-05-02T10:20:19.338Z,14.50
2018-05-02T10:22:46.890Z,14.60
2018-05-02T10:25:14.481Z,14.80
2018-05-02T10:27:42.038Z,14.80
2018-05-02T10:30:09.598Z,14.70
2018-05-02T10:32:37.190Z,14.90
2018-05-02T10:35:04.774Z,15.00
2018-05-02T10:37:32.370Z,14.80
2018-05-02T10:39:59.932Z,14.60
2018-05-02T10:42:27.541Z,14.50
2018-05-02T10:44:55.862Z,14.30
2018-05-02T10:47:23.441Z,14.30
2018-05-02T10:49:51.001Z,14.30
2018-05-02T10:52:18.598Z,14.40
2018-05-02T10:54:46.181Z,14.30
2018-05-02T10:57:13.790Z,14.20
2018-05-02T10:59:41.395Z,14.20
2018-05-02T11:02:08.990Z,14.10
2018-05-02T11:04:36.561Z,14.30
2018-05-02T11:07:04.139Z,14.50
2018-05-02T11:09:31.705Z,14.60
2018-05-02T11:11:59.299Z,14.70
2018-05-02T11:14:26.858Z,14.40
2018-05-02T11:16:54.410Z,14.30
2018-05-02T11:19:21.991Z,14.20
2018-05-02T11:21:49.559Z,14.20
2018-05-02T11:24:17.190Z,14.80
2018-05-02T11:26:44.753Z,15.10
2018-05-02T11:29:13.093Z,15.20
2018-05-02T11:31:40.677Z,15.20
2018-05-02T11:34:08.352Z,15.30
2018-05-02T11:36:35.924Z,15.50
2018-05-02T11:39:03.504Z,15.30
2018-05-02T11:41:31.087Z,15.00
2018-05-02T11:43:58.688Z,14.60
2018-05-02T11:46:26.293Z,14.30
2018-05-02T11:48:53.919Z,14.10
2018-05-02T11:51:21.657Z,14.30
2018-05-02T11:53:49.280Z,14.80
2018-05-02T11:56:17.602Z,14.70
2018-05-02T11:58:45.157Z,14.70
2018-05-02T12:01:12.756Z,14.50
2018-05-02T12:03:40.316Z,14.70
2018-05-02T12:06:07.889Z,14.90
2018-05-02T12:08:35.444Z,15.20
2018-05-02T12:11:03.033Z,15.60
2018-05-02T12:13:30.616Z,15.90
2018-05-02T12:15:58.228Z,16.00
2018-05-02T12:18:25.819Z,16.10
2018-05-02T12:20:57.194Z,15.50
2018-05-02T12:23:25.561Z,15.50
2018-05-02T12:25:53.946Z,15.50
2018-05-02T12:28:22.347Z,16.00
2018-05-02T12:30:50.697Z,16.10
2018-05-02T12:33:18.274Z,16.10
2018-05-02T12:35:45.857Z,16.10
2018-05-02T12:38:13.413Z,16.20
2018-05-02T12:40:40.985Z,16.40
2018-05-02T12:43:08.551Z,16.50
2018-05-02T12:45:36.150Z,16.30
2018-05-02T12:48:03.704Z,16.20
2018-05-02T12:50:31.269Z,16.40
2018-05-02T12:52:59.383Z,16.70
2018-05-02T12:55:26.961Z,16.90
2018-05-02T12:57:54.584Z,16.80
2018-05-02T13:00:22.193Z,16.70
2018-05-02T13:02:49.804Z,16.70
2018-05-02T13:05:18.149Z,16.40
2018-05-02T13:07:45.739Z,16.40
2018-05-02T13:10:13.298Z,16.30
2018-05-02T13:12:40.877Z,16.20
2018-05-02T13:15:08.442Z,16.30
2018-05-02T13:17:36.017Z,16.40
2018-05-02T13:20:03.570Z,16.50
2018-05-02T13:22:31.175Z,16.50
2018-05-02T13:24:58.765Z,16.60
2018-05-02T13:27:26.381Z,16.80
2018-05-02T13:29:54.026Z,16.90
2018-05-02T13:32:21.781Z,16.90
2018-05-02T13:34:49.390Z,16.80
2018-05-02T13:37:16.968Z,16.70
2018-05-02T13:39:44.559Z,16.70
2018-05-02T13:42:12.122Z,16.60
2018-05-02T13:44:39.694Z,16.70
2018-05-02T13:47:07.245Z,16.90
2018-05-02T13:49:34.822Z,17.00
2018-05-02T13:52:02.381Z,17.00
2018-05-02T13:54:29.986Z,17.00
2018-05-02T13:56:57.586Z,17.00
2018-05-02T13:59:25.252Z,16.90
2018-05-02T14:01:52.852Z,16.60
2018-05-02T14:04:20.463Z,16.20
2018-05-02T14:06:48.021Z,16.10
2018-05-02T14:09:15.592Z,16.20
2018-05-02T14:11:43.158Z,16.40
2018-05-02T14:14:11.600Z,17.10
2018-05-02T14:16:39.869Z,17.40
2018-05-02T14:19:07.430Z,17.30
2018-05-02T14:21:35.025Z,17.60
2018-05-02T14:24:02.586Z,17.80
2018-05-02T14:26:30.169Z,18.00
2018-05-02T14:28:57.775Z,18.00
2018-05-02T14:31:25.425Z,17.80
2018-05-02T14:33:53.106Z,17.90
2018-05-02T14:36:21.609Z,17.80
2018-05-02T14:38:49.972Z,17.80
2018-05-02T14:41:17.549Z,17.80
2018-05-02T14:43:45.102Z,17.50
2018-05-02T14:46:12.681Z,17.40
2018-05-02T14:48:40.270Z,17.40
2018-05-02T14:51:08.641Z,17.30
2018-05-02T14:53:36.193Z,17.20
2018-05-02T14:56:03.777Z,17.10
2018-05-02T14:58:31.392Z,16.80
2018-05-02T15:00:59.032Z,17.00
2018-05-02T15:03:26.613Z,17.20
2018-05-02T15:05:54.297Z,17.30
2018-05-02T15:08:22.253Z,17.40
2018-05-02T15:10:49.818Z,17.20
2018-05-02T15:13:17.393Z,17.10
2018-05-02T15:15:44.962Z,17.20
2018-05-02T15:18:12.546Z,17.20
2018-05-02T15:20:40.109Z,17.20
2018-05-02T15:23:07.894Z,17.20
2018-05-02T15:25:35.471Z,17.20
2018-05-02T15:28:03.112Z,17.30
2018-05-02T15:30:31.498Z,17.50
2018-05-02T15:33:00.090Z,17.50
2018-05-02T15:35:27.683Z,17.40
2018-05-02T15:37:55.266Z,17.40
2018-05-02T15:40:24.783Z,17.30
2018-05-02T15:42:52.310Z,17.30
2018-05-02T15:45:19.870Z,17.20
2018-05-02T15:47:47.475Z,17.20
2018-05-02T15:50:15.034Z,17.30
2018-05-02T15:52:42.593Z,17.30
2018-05-02T15:55:10.172Z,17.30
2018-05-02T15:57:37.749Z,17.30
2018-05-02T16:00:05.382Z,17.40
2018-05-02T16:02:33.039Z,17.50
2018-05-02T16:05:00.687Z,17.60
2018-05-02T16:07:29.030Z,18.70
2018-05-02T16:09:56.669Z,18.70
2018-05-02T16:12:24.194Z,19.10
2018-05-02T16:14:51.769Z,19.40
2018-05-02T16:17:19.349Z,19.50
2018-05-02T16:19:46.948Z,19.60
2018-05-02T16:22:15.299Z,19.80
2018-05-02T16:24:42.937Z,19.80
2018-05-02T16:27:10.635Z,20.20
2018-05-02T16:29:39.118Z,20.10
2018-05-02T16:32:06.725Z,20.00
2018-05-02T16:34:34.313Z,20.10
2018-05-02T16:37:02.660Z,20.10
2018-05-02T16:39:30.221Z,20.10
2018-05-02T16:41:57.791Z,19.80
2018-05-02T16:44:25.353Z,19.80
2018-05-02T16:46:52.931Z,19.60
2018-05-02T16:49:21.129Z,19.80
2018-05-02T16:51:48.726Z,19.50
2018-05-02T16:54:16.468Z,19.00
2018-05-02T16:56:44.058Z,19.10
2018-05-02T16:59:11.648Z,18.70
2018-05-02T17:01:39.251Z,18.40
2018-05-02T17:04:07.797Z,17.80
2018-05-02T17:06:35.590Z,17.80
2018-05-02T17:09:03.152Z,17.60
2018-05-02T17:11:30.730Z,17.50
2018-05-02T17:13:58.305Z,17.30
2018-05-02T17:16:25.886Z,17.20
2018-05-02T17:18:53.441Z,17.00
2018-05-02T17:21:21.789Z,16.90
2018-05-02T17:23:49.365Z,16.90
2018-05-02T17:26:16.924Z,16.80
2018-05-02T17:28:45.271Z,16.60
2018-05-02T17:31:12.878Z,16.60
2018-05-02T17:33:41.242Z,16.60
2018-05-02T17:36:08.827Z,16.60
2018-05-02T17:38:36.428Z,16.50
2018-05-02T17:41:03.990Z,16.40
2018-05-02T17:43:32.337Z,16.20
2018-05-02T17:45:59.897Z,16.20
2018-05-02T17:48:27.478Z,16.10
2018-05-02T17:50:55.037Z,15.90
2018-05-02T17:53:22.613Z,15.80
2018-05-02T17:55:50.176Z,15.70
2018-05-02T17:58:17.753Z,15.60
2018-05-02T18:00:45.320Z,15.50
2018-05-02T18:03:12.948Z,15.50
2018-05-02T18:05:41.341Z,15.30
2018-05-02T18:08:09.735Z,15.20
2018-05-02T18:10:38.065Z,15.20
2018-05-02T18:13:05.618Z,15.20
2018-05-02T18:15:33.196Z,15.10
2018-05-02T18:18:00.754Z,15.00
2018-05-02T18:20:29.099Z,14.60
2018-05-02T18:22:56.657Z,14.60
2018-05-02T18:25:24.233Z,14.60
2018-05-02T18:27:51.789Z,14.50
2018-05-02T18:30:19.361Z,14.60
2018-05-02T18:32:46.913Z,14.50
2018-05-02T18:35:14.572Z,14.50
2018-05-02T18:37:42.904Z,14.20
2018-05-02T18:40:10.547Z,14.20
2018-05-02T18:42:38.357Z,14.00
2018-05-02T18:45:06.226Z,14.10
2018-05-02T18:47:33.829Z,14.10
2018-05-02T18:50:01.717Z,14.00
2018-05-02T18:52:29.273Z,14.00
2018-05-02T18:54:57.554Z,14.00
2018-05-02T18:57:25.111Z,14.00
2018-05-02T18:59:52.681Z,14.10
2018-05-02T19:02:21.538Z,14.20
2018-05-02T19:04:49.978Z,14.10
2018-05-02T19:07:17.640Z,14.10
2018-05-02T19:09:45.239Z,14.00
2018-05-02T19:12:12.983Z,14.00
2018-05-02T19:14:41.190Z,14.00
2018-05-02T19:17:08.770Z,14.00
2018-05-02T19:19:42.747Z,14.00
2018-05-02T19:22:11.125Z,13.80
2018-05-02T19:24:45.070Z,13.70
2018-05-02T19:27:13.502Z,13.60
2018-05-02T19:29:41.141Z,13.60
2018-05-02T19:32:14.489Z,13.70
2018-05-02T19:34:42.054Z,13.50
2018-05-02T19:37:09.637Z,13.50
2018-05-02T19:39:42.845Z,13.40
2018-05-02T19:45:11.362Z,13.20
2018-05-02T19:47:38.934Z,13.10
2018-05-02T19:50:06.539Z,13.10
2018-05-02T19:52:39.919Z,13.00
2018-05-02T19:55:07.494Z,12.90
2018-05-02T19:57:35.057Z,12.90
2018-05-02T20:00:02.638Z,12.80
2018-05-02T20:02:35.926Z,12.80
2018-05-02T20:05:03.505Z,12.80
2018-05-02T20:07:36.712Z,12.80
2018-05-02T20:10:10.986Z,12.70
2018-05-02T20:12:44.938Z,12.50
2018-05-02T20:15:12.518Z,12.50
2018-05-02T20:17:40.077Z,12.50
2018-05-02T20:20:07.661Z,12.40
2018-05-02T20:22:35.226Z,12.40
2018-05-02T20:25:02.810Z,12.40
2018-05-02T20:27:30.373Z,12.40
2018-05-02T20:29:57.966Z,12.40
2018-05-02T20:32:25.538Z,12.40
2018-05-02T20:34:53.141Z,12.50
2018-05-02T20:37:20.727Z,12.50
2018-05-02T20:39:48.399Z,12.50
2018-05-02T20:42:16.042Z,12.50
2018-05-02T20:44:43.607Z,12.50
2018-05-02T20:47:11.501Z,12.50
2018-05-02T20:49:39.070Z,12.60
2018-05-02T20:52:06.649Z,12.40
2018-05-02T20:54:34.208Z,12.20
2018-05-02T20:57:01.781Z,12.20
2018-05-02T20:59:29.341Z,12.30
2018-05-02T21:01:56.921Z,12.20
2018-05-02T21:04:24.489Z,12.00
2018-05-02T21:06:52.102Z,12.10
2018-05-02T21:09:20.455Z,12.30
2018-05-02T21:11:48.058Z,12.30
2018-05-02T21:14:16.436Z,12.40
2018-05-02T21:16:44.049Z,12.40
2018-05-02T21:19:12.382Z,12.50
2018-05-02T21:21:39.942Z,12.50
2018-05-02T21:24:07.530Z,12.50
2018-05-02T21:26:35.093Z,12.50
2018-05-02T21:29:02.676Z,12.50
2018-05-02T21:31:30.330Z,12.50
2018-05-02T21:33:57.908Z,12.60
2018-05-02T21:36:25.462Z,12.60
2018-05-02T21:38:53.058Z,12.40
2018-05-02T21:41:20.637Z,12.30
2018-05-02T21:43:48.273Z,12.40
2018-05-02T21:46:15.841Z,12.50
2018-05-02T21:48:43.438Z,12.30
2018-05-02T21:51:10.999Z,12.00
2018-05-02T21:53:38.578Z,12.10
2018-05-02T21:56:06.133Z,12.20
2018-05-02T22:01:06.489Z,12.00
2018-05-02T22:03:34.858Z,11.80
2018-05-02T22:06:02.413Z,11.80
2018-05-02T22:08:29.978Z,12.00
2018-05-02T22:10:57.567Z,11.90
2018-05-02T22:13:25.141Z,11.80
2018-05-02T22:15:52.752Z,11.60
2018-05-02T22:18:20.331Z,11.60
2018-05-02T22:20:47.963Z,11.80
2018-05-02T22:23:15.559Z,11.90
2018-05-02T22:25:43.154Z,12.10
2018-05-02T22:28:10.726Z,12.00
2018-05-02T22:30:38.305Z,11.70
2018-05-02T22:33:05.874Z,11.50
2018-05-02T22:35:33.453Z,11.50
2018-05-02T22:38:01.054Z,11.40
2018-05-02T22:40:28.655Z,11.40
2018-05-02T22:42:57.098Z,11.30
2018-05-02T22:45:24.721Z,11.40
2018-05-02T22:47:52.337Z,11.40
2018-05-02T22:50:19.941Z,11.40
2018-05-02T22:52:47.502Z,11.40
2018-05-02T22:55:15.059Z,11.40
2018-05-02T22:57:42.653Z,11.40
2018-05-02T23:00:10.209Z,11.40
2018-05-02T23:02:37.902Z,11.50
2018-05-02T23:05:06.164Z,11.60
2018-05-02T23:07:33.737Z,11.60
2018-05-02T23:10:01.297Z,11.70
2018-05-02T23:12:28.892Z,11.70
2018-05-02T23:14:56.457Z,11.80
2018-05-02T23:17:24.042Z,11.80
2018-05-02T23:19:51.605Z,11.80
2018-05-02T23:22:19.183Z,11.70
2018-05-02T23:24:46.745Z,11.60
2018-05-02T23:27:14.326Z,11.50
2018-05-02T23:29:41.890Z,11.50
2018-05-02T23:32:09.491Z,11.40
2018-05-02T23:34:37.072Z,11.30
2018-05-02T23:37:04.676Z,11.30
2018-05-02T23:39:32.379Z,11.30
2018-05-02T23:41:59.975Z,11.30
2018-05-02T23:44:27.558Z,11.20
2018-05-02T23:46:55.127Z,11.30
2018-05-02T23:49:22.765Z,11.40
2018-05-02T23:51:50.326Z,11.40
2018-05-02T23:54:17.911Z,11.30
2018-05-02T23:56:45.478Z,11.00
2018-05-02T23:59:13.053Z,11.00
